createdAt,value
2018-02-16T00:00:03.410Z,11.85
2018-02-16T00:02:32.309Z,10.20
2018-02-16T00:05:01.407Z,11.80
2018-02-16T00:07:30.542Z,12.77
2018-02-16T00:09:59.810Z,12.88
2018-02-16T00:12:29.821Z,13.32
2018-02-16T00:14:58.848Z,10.73
2018-02-16T00:17:27.940Z,12.50
2018-02-16T00:19:57.118Z,12.07
2018-02-16T00:22:26.198Z,11.75
2018-02-16T00:24:55.299Z,10.25
2018-02-16T00:27:25.933Z,11.40
2018-02-16T00:29:55.063Z,12.30
2018-02-16T00:32:24.020Z,12.13
2018-02-16T00:34:53.982Z,11.68
2018-02-16T00:37:23.134Z,11.65
2018-02-16T00:39:52.232Z,11.73
2018-02-16T00:42:23.680Z,9.75
2018-02-16T00:44:52.777Z,10.90
2018-02-16T00:47:21.771Z,12.45
2018-02-16T00:49:51.705Z,10.98
2018-02-16T00:52:20.687Z,12.63
2018-02-16T00:54:50.715Z,12.15
2018-02-16T00:57:21.734Z,12.30
2018-02-16T00:59:51.108Z,10.80
2018-02-16T01:02:23.494Z,10.90
2018-02-16T01:04:52.510Z,10.82
2018-02-16T01:07:21.607Z,11.10
2018-02-16T01:09:51.956Z,12.00
2018-02-16T01:12:20.929Z,12.43
2018-02-16T01:14:50.725Z,10.48
2018-02-16T01:17:25.064Z,10.65
2018-02-16T01:19:54.029Z,10.30
2018-02-16T01:22:24.196Z,10.63
2018-02-16T01:24:55.388Z,11.57
2018-02-16T01:27:24.655Z,10.70
2018-02-16T01:29:53.576Z,11.95
2018-02-16T01:32:23.735Z,11.07
2018-02-16T01:34:52.725Z,11.63
2018-02-16T01:37:21.923Z,10.40
2018-02-16T01:39:51.224Z,10.98
2018-02-16T01:42:20.217Z,10.95
2018-02-16T01:44:49.212Z,10.57
2018-02-16T01:47:19.065Z,11.70
2018-02-16T01:50:00.730Z,9.63
2018-02-16T01:52:31.453Z,11.45
2018-02-16T01:55:00.542Z,12.23
2018-02-16T01:57:30.305Z,10.77
2018-02-16T01:59:59.594Z,10.57
2018-02-16T02:02:30.346Z,11.50
2018-02-16T02:04:59.331Z,9.73
2018-02-16T02:07:28.999Z,10.77
2018-02-16T02:09:58.299Z,10.15
2018-02-16T02:12:27.554Z,10.30
2018-02-16T02:14:57.367Z,12.02
2018-02-16T02:17:26.299Z,11.65
2018-02-16T02:19:55.401Z,9.18
2018-02-16T02:22:24.600Z,10.70
2018-02-16T02:24:53.495Z,8.82
2018-02-16T02:27:22.676Z,9.80
2018-02-16T02:29:54.344Z,10.55
2018-02-16T02:32:23.450Z,10.57
2018-02-16T02:34:52.438Z,9.07
2018-02-16T02:37:23.207Z,10.45
2018-02-16T02:39:52.268Z,11.55
2018-02-16T02:42:21.266Z,11.02
2018-02-16T02:44:54.972Z,11.88
2018-02-16T02:47:23.974Z,11.25
2018-02-16T02:49:55.812Z,9.45
2018-02-16T02:52:24.844Z,10.73
2018-02-16T02:54:53.912Z,12.88
2018-02-16T02:57:23.071Z,11.43
2018-02-16T02:59:52.129Z,13.00
2018-02-16T03:02:21.097Z,10.63
2018-02-16T03:04:51.717Z,11.27
2018-02-16T03:07:20.734Z,11.57
2018-02-16T03:09:49.918Z,10.43
2018-02-16T03:12:19.030Z,11.90
2018-02-16T03:14:47.944Z,11.25
2018-02-16T03:17:17.140Z,8.45
2018-02-16T03:19:49.098Z,9.98
2018-02-16T03:22:18.064Z,10.35
2018-02-16T03:24:47.054Z,10.70
2018-02-16T03:27:16.256Z,8.75
2018-02-16T03:29:45.475Z,10.85
2018-02-16T03:32:14.374Z,11.20
2018-02-16T03:34:43.390Z,9.85
2018-02-16T03:37:12.482Z,9.75
2018-02-16T03:39:42.503Z,8.93
2018-02-16T03:42:12.377Z,10.88
2018-02-16T03:44:41.298Z,9.32
2018-02-16T03:47:10.354Z,10.55
2018-02-16T03:49:43.855Z,9.95
2018-02-16T03:52:12.954Z,10.82
2018-02-16T03:54:42.099Z,10.85
2018-02-16T03:57:11.570Z,9.63
2018-02-16T03:59:40.546Z,12.02
2018-02-16T04:02:10.050Z,9.15
2018-02-16T04:04:38.989Z,11.30
2018-02-16T04:07:09.373Z,10.90
2018-02-16T04:09:38.395Z,12.57
2018-02-16T04:12:07.574Z,12.07
2018-02-16T04:14:36.594Z,10.65
2018-02-16T04:17:05.590Z,10.32
2018-02-16T04:19:35.356Z,10.75
2018-02-16T04:22:04.357Z,10.48
2018-02-16T04:24:33.489Z,11.00
2018-02-16T04:27:05.119Z,11.48
2018-02-16T04:29:34.105Z,11.52
2018-02-16T04:32:04.355Z,10.10
2018-02-16T04:34:35.136Z,11.48
2018-02-16T04:37:04.169Z,10.73
2018-02-16T04:39:34.390Z,10.50
2018-02-16T04:42:04.699Z,11.40
2018-02-16T04:44:33.793Z,11.73
2018-02-16T04:47:02.692Z,11.10
2018-02-16T04:49:31.773Z,13.18
2018-02-16T04:52:00.788Z,11.98
2018-02-16T04:54:31.515Z,14.05
2018-02-16T04:57:00.722Z,9.77
2018-02-16T04:59:29.689Z,12.52
2018-02-16T05:01:58.799Z,11.40
2018-02-16T05:04:28.149Z,11.43
2018-02-16T05:06:57.102Z,13.20
2018-02-16T05:09:26.197Z,11.15
2018-02-16T05:11:56.367Z,12.23
2018-02-16T05:14:25.332Z,15.48
2018-02-16T05:16:54.392Z,11.77
2018-02-16T05:19:23.782Z,14.87
2018-02-16T05:21:52.670Z,13.05
2018-02-16T05:24:21.637Z,13.80
2018-02-16T05:26:50.907Z,12.98
2018-02-16T05:29:20.204Z,12.05
2018-02-16T05:31:49.188Z,14.10
2018-02-16T05:34:19.283Z,11.25
2018-02-16T05:36:48.232Z,15.07
2018-02-16T05:39:17.299Z,15.35
2018-02-16T05:41:47.280Z,13.65
2018-02-16T05:44:16.245Z,12.20
2018-02-16T05:46:45.815Z,13.00
2018-02-16T05:49:15.019Z,14.93
2018-02-16T05:51:43.903Z,14.15
2018-02-16T05:54:13.004Z,12.73
2018-02-16T05:56:42.207Z,13.98
2018-02-16T05:59:12.016Z,14.73
2018-02-16T06:01:41.825Z,13.57
2018-02-16T06:04:10.957Z,13.80
2018-02-16T06:06:40.719Z,12.05
2018-02-16T06:09:09.943Z,12.95
2018-02-16T06:11:40.604Z,12.80
2018-02-16T06:14:10.682Z,11.80
2018-02-16T06:16:39.684Z,12.88
2018-02-16T06:19:10.577Z,14.07
2018-02-16T06:21:40.233Z,14.90
2018-02-16T06:24:09.512Z,13.00
2018-02-16T06:26:39.039Z,14.70
2018-02-16T06:29:08.231Z,12.45
2018-02-16T06:31:38.184Z,14.65
2018-02-16T06:34:10.194Z,14.35
2018-02-16T06:36:39.379Z,15.52
2018-02-16T06:39:09.223Z,12.75
2018-02-16T06:41:38.419Z,13.27
2018-02-16T06:44:07.621Z,13.57
2018-02-16T06:46:38.292Z,13.90
2018-02-16T06:49:08.587Z,14.63
2018-02-16T06:51:38.427Z,13.70
2018-02-16T06:54:10.155Z,11.88
2018-02-16T06:56:39.253Z,13.82
2018-02-16T06:59:08.302Z,12.98
2018-02-16T07:01:37.677Z,13.48
2018-02-16T07:04:06.749Z,14.60
2018-02-16T07:06:36.717Z,13.48
2018-02-16T07:09:06.762Z,15.13
2018-02-16T07:11:35.872Z,12.05
2018-02-16T07:14:04.940Z,14.25
2018-02-16T07:16:35.690Z,14.07
2018-02-16T07:19:04.701Z,15.50
2018-02-16T07:21:33.694Z,13.48
2018-02-16T07:24:03.783Z,13.95
2018-02-16T07:26:32.856Z,16.37
2018-02-16T07:29:01.800Z,15.15
2018-02-16T07:31:33.932Z,14.87
2018-02-16T07:34:02.777Z,15.23
2018-02-16T07:36:31.647Z,14.27
2018-02-16T07:39:02.386Z,15.20
2018-02-16T07:41:32.294Z,14.73
2018-02-16T07:44:01.276Z,15.02
2018-02-16T07:46:30.697Z,16.40
2018-02-16T07:48:59.726Z,14.23
2018-02-16T07:51:29.244Z,11.55
2018-02-16T07:53:58.390Z,14.95
2018-02-16T07:56:28.304Z,15.30
2018-02-16T07:58:57.313Z,14.98
2018-02-16T08:01:27.323Z,15.40
2018-02-16T08:03:56.604Z,15.38
2018-02-16T08:06:28.308Z,14.85
2018-02-16T08:08:57.783Z,15.35
2018-02-16T08:11:26.881Z,14.18
2018-02-16T08:13:56.065Z,14.27
2018-02-16T08:16:25.273Z,14.90
2018-02-16T08:18:54.371Z,14.15
2018-02-16T08:21:27.880Z,14.10
2018-02-16T08:23:56.887Z,14.70
2018-02-16T08:26:26.265Z,15.80
2018-02-16T08:28:55.474Z,14.55
2018-02-16T08:31:25.388Z,14.10
2018-02-16T08:33:54.459Z,14.98
2018-02-16T08:36:24.239Z,15.47
2018-02-16T08:38:53.372Z,15.60
2018-02-16T08:41:24.740Z,14.47
2018-02-16T08:43:54.612Z,12.43
2018-02-16T08:46:24.129Z,13.07
2018-02-16T08:48:53.252Z,14.27
2018-02-16T08:51:25.736Z,14.60
2018-02-16T08:53:54.744Z,14.03
2018-02-16T08:56:23.768Z,12.67
2018-02-16T08:58:52.917Z,13.47
2018-02-16T09:01:22.090Z,13.37
2018-02-16T09:03:51.214Z,13.80
2018-02-16T09:06:21.892Z,10.13
2018-02-16T09:08:50.878Z,9.93
2018-02-16T09:11:20.002Z,13.40
2018-02-16T09:13:50.655Z,12.90
2018-02-16T09:16:20.384Z,11.10
2018-02-16T09:18:49.473Z,12.00
2018-02-16T09:21:19.595Z,12.43
2018-02-16T09:23:48.727Z,13.00
2018-02-16T09:26:17.790Z,10.97
2018-02-16T09:28:46.996Z,11.50
2018-02-16T09:31:16.294Z,10.83
2018-02-16T09:33:45.387Z,11.20
2018-02-16T09:36:16.845Z,11.93
2018-02-16T09:38:46.045Z,13.27
2018-02-16T09:41:15.134Z,10.57
2018-02-16T09:43:45.146Z,11.87
2018-02-16T09:46:14.861Z,10.30
2018-02-16T09:48:43.932Z,11.13
2018-02-16T09:51:13.067Z,12.30
2018-02-16T09:53:43.066Z,9.70
2018-02-16T09:56:16.625Z,10.00
2018-02-16T09:58:45.563Z,11.67
2018-02-16T10:01:14.661Z,9.37
2018-02-16T10:03:43.757Z,10.70
2018-02-16T10:06:12.701Z,10.10
2018-02-16T10:08:41.651Z,7.43
2018-02-16T10:11:11.307Z,9.20
2018-02-16T10:13:40.240Z,9.40
2018-02-16T10:16:09.547Z,9.50
2018-02-16T10:18:39.468Z,9.80
2018-02-16T10:21:08.663Z,10.13
2018-02-16T10:23:37.958Z,10.10
2018-02-16T10:26:07.741Z,8.90
2018-02-16T10:28:37.455Z,10.77
2018-02-16T10:31:08.322Z,10.00
2018-02-16T10:33:38.308Z,9.87
2018-02-16T10:36:07.332Z,7.20
2018-02-16T10:38:36.327Z,8.83
2018-02-16T10:41:05.639Z,9.23
2018-02-16T10:43:34.828Z,9.87
2018-02-16T10:46:04.717Z,8.07
2018-02-16T10:48:35.375Z,7.53
2018-02-16T10:51:05.318Z,7.30
2018-02-16T10:53:35.205Z,6.27
2018-02-16T10:56:04.408Z,8.53
2018-02-16T10:58:34.117Z,7.90
2018-02-16T11:01:08.583Z,8.00
2018-02-16T11:03:39.191Z,8.80
2018-02-16T11:06:13.222Z,7.87
2018-02-16T11:08:50.859Z,6.87
2018-02-16T11:11:20.628Z,8.00
2018-02-16T11:13:49.721Z,9.20
2018-02-16T11:16:19.437Z,7.83
2018-02-16T11:18:48.596Z,6.87
2018-02-16T11:21:17.586Z,6.80
2018-02-16T11:23:48.270Z,8.23
2018-02-16T11:26:17.315Z,8.77
2018-02-16T11:28:46.348Z,7.60
2018-02-16T11:31:15.311Z,12.80
2018-02-16T11:33:45.018Z,9.33
2018-02-16T11:36:14.012Z,10.07
2018-02-16T11:38:42.945Z,10.60
2018-02-16T11:41:11.978Z,10.00
2018-02-16T11:43:40.921Z,9.03
2018-02-16T11:46:10.028Z,9.47
2018-02-16T11:48:41.639Z,8.13
2018-02-16T11:51:10.739Z,11.17
2018-02-16T11:53:39.844Z,10.40
2018-02-16T11:56:11.283Z,10.10
2018-02-16T11:58:40.278Z,8.17
2018-02-16T12:01:09.272Z,10.60
2018-02-16T12:03:41.744Z,10.07
2018-02-16T12:06:10.650Z,9.57
2018-02-16T12:08:39.766Z,7.60
2018-02-16T12:11:08.839Z,5.80
2018-02-16T12:13:38.561Z,6.63
2018-02-16T12:16:07.762Z,7.37
2018-02-16T12:18:36.917Z,6.97
2018-02-16T12:21:05.994Z,6.50
2018-02-16T12:23:34.941Z,7.50
2018-02-16T12:26:04.743Z,7.47
2018-02-16T12:28:33.840Z,6.77
2018-02-16T12:31:03.688Z,7.87
2018-02-16T12:33:32.883Z,7.27
2018-02-16T12:36:02.122Z,9.10
2018-02-16T12:38:32.279Z,6.87
2018-02-16T12:43:36.507Z,8.57
2018-02-16T12:46:05.649Z,12.90
2018-02-16T12:48:35.627Z,10.23
2018-02-16T12:51:04.821Z,11.33
2018-02-16T12:53:33.913Z,10.00
2018-02-16T12:56:04.559Z,9.30
2018-02-16T12:58:33.542Z,11.43
2018-02-16T13:01:02.634Z,14.13
2018-02-16T13:03:31.906Z,15.90
2018-02-16T13:06:01.652Z,17.60
2018-02-16T13:08:30.742Z,17.67
2018-02-16T13:11:00.759Z,15.70
2018-02-16T13:13:29.964Z,16.80
2018-02-16T13:15:59.052Z,17.30
2018-02-16T13:18:28.254Z,15.47
2018-02-16T13:20:57.452Z,18.40
2018-02-16T13:23:26.551Z,20.10
2018-02-16T13:25:55.788Z,24.37
2018-02-16T13:28:24.849Z,19.70
2018-02-16T13:30:54.053Z,23.50
2018-02-16T13:33:25.597Z,19.50
2018-02-16T13:35:54.596Z,25.47
2018-02-16T13:38:23.998Z,24.67
2018-02-16T13:40:53.193Z,19.20
2018-02-16T13:43:22.315Z,20.33
2018-02-16T13:45:51.388Z,19.83
2018-02-16T13:48:22.252Z,19.10
2018-02-16T13:50:52.260Z,17.33
2018-02-16T13:53:21.924Z,19.10
2018-02-16T13:55:51.144Z,19.00
2018-02-16T13:58:21.115Z,17.63
2018-02-16T14:00:51.089Z,18.70
2018-02-16T14:03:21.952Z,19.50
2018-02-16T14:05:51.103Z,18.20
2018-02-16T14:08:20.112Z,18.63
2018-02-16T14:10:52.027Z,19.97
2018-02-16T14:13:20.966Z,20.47
2018-02-16T14:15:50.040Z,18.57
2018-02-16T14:18:19.168Z,19.00
2018-02-16T14:20:49.415Z,19.03
2018-02-16T14:23:18.487Z,18.50
2018-02-16T14:25:48.554Z,21.60
2018-02-16T14:28:17.638Z,23.00
2018-02-16T14:30:48.615Z,21.27
2018-02-16T14:33:18.347Z,19.80
2018-02-16T14:35:47.349Z,22.23
2018-02-16T14:38:16.460Z,24.50
2018-02-16T14:40:46.565Z,19.50
2018-02-16T14:43:16.984Z,25.00
2018-02-16T14:45:46.091Z,25.00
2018-02-16T14:48:15.398Z,24.17
2018-02-16T14:50:44.502Z,24.50
2018-02-16T14:53:13.470Z,20.70
2018-02-16T14:55:42.769Z,21.50
2018-02-16T14:58:11.768Z,23.77
2018-02-16T15:00:41.527Z,25.33
2018-02-16T15:03:10.721Z,24.27
2018-02-16T15:05:39.815Z,25.07
2018-02-16T15:08:08.913Z,21.47
2018-02-16T15:10:38.270Z,21.07
2018-02-16T15:13:07.262Z,31.57
2018-02-16T15:15:36.363Z,29.77
2018-02-16T15:18:07.181Z,31.93
2018-02-16T15:20:37.265Z,27.50
2018-02-16T15:23:06.260Z,22.80
2018-02-16T15:25:37.003Z,24.07
2018-02-16T15:28:06.040Z,24.73
2018-02-16T15:30:35.561Z,25.57
2018-02-16T15:33:06.093Z,23.40
2018-02-16T15:35:35.174Z,24.67
2018-02-16T15:38:04.243Z,22.43
2018-02-16T15:40:33.507Z,22.03
2018-02-16T15:43:03.675Z,24.40
2018-02-16T15:45:32.795Z,24.23
2018-02-16T15:48:01.989Z,22.67
2018-02-16T15:50:31.194Z,23.40
2018-02-16T15:53:00.316Z,26.53
2018-02-16T15:55:29.499Z,23.77
2018-02-16T15:57:58.759Z,27.27
2018-02-16T16:00:27.606Z,24.10
2018-02-16T16:02:59.292Z,22.30
2018-02-16T16:05:29.088Z,24.43
2018-02-16T16:07:57.980Z,25.57
2018-02-16T16:10:28.975Z,22.83
2018-02-16T16:12:59.091Z,22.47
2018-02-16T16:15:28.210Z,26.60
2018-02-16T16:18:00.357Z,24.93
2018-02-16T16:20:30.749Z,25.27
2018-02-16T16:22:59.781Z,25.23
2018-02-16T16:25:29.000Z,30.20
2018-02-16T16:27:58.121Z,46.17
2018-02-16T16:30:27.237Z,29.63
2018-02-16T16:32:56.319Z,24.73
2018-02-16T16:35:25.504Z,26.63
2018-02-16T16:37:55.328Z,22.97
2018-02-16T16:40:24.488Z,26.40
2018-02-16T16:42:53.618Z,24.97
2018-02-16T16:45:22.714Z,30.67
2018-02-16T16:47:52.596Z,35.53
2018-02-16T16:50:26.401Z,30.30
2018-02-16T16:52:57.531Z,25.67
2018-02-16T16:55:26.725Z,28.83
2018-02-16T16:57:55.783Z,25.17
2018-02-16T17:00:25.030Z,30.90
2018-02-16T17:02:54.122Z,31.00
2018-02-16T17:05:23.413Z,30.77
2018-02-16T17:07:53.279Z,23.40
2018-02-16T17:10:22.228Z,26.43
2018-02-16T17:12:51.341Z,24.80
2018-02-16T17:15:20.793Z,27.50
2018-02-16T17:17:49.887Z,28.33
2018-02-16T17:20:18.877Z,28.50
2018-02-16T17:22:52.478Z,29.40
2018-02-16T17:25:21.944Z,28.10
2018-02-16T17:27:51.137Z,28.07
2018-02-16T17:30:20.403Z,26.33
2018-02-16T17:32:49.593Z,26.80
2018-02-16T17:35:18.729Z,26.60
2018-02-16T17:37:51.534Z,27.00
2018-02-16T17:40:20.797Z,24.83
2018-02-16T17:42:50.168Z,28.53
2018-02-16T17:45:19.260Z,31.83
2018-02-16T17:47:48.353Z,29.83
2018-02-16T17:50:17.586Z,29.77
2018-02-16T17:52:47.947Z,28.67
2018-02-16T17:55:17.114Z,32.10
2018-02-16T17:57:46.214Z,27.13
2018-02-16T18:00:16.174Z,31.30
2018-02-16T18:02:45.224Z,39.63
2018-02-16T18:05:14.533Z,48.47
2018-02-16T18:07:43.633Z,44.17
2018-02-16T18:10:13.638Z,52.10
2018-02-16T18:12:42.858Z,53.72
2018-02-16T18:15:14.095Z,55.87
2018-02-16T18:17:43.494Z,52.75
2018-02-16T18:20:12.793Z,55.15
2018-02-16T18:22:42.868Z,54.50
2018-02-16T18:25:12.102Z,57.90
2018-02-16T18:27:41.512Z,65.18
2018-02-16T18:30:10.797Z,63.15
2018-02-16T18:32:40.223Z,69.07
2018-02-16T18:35:09.600Z,77.93
2018-02-16T18:37:39.787Z,78.10
2018-02-16T18:40:09.059Z,73.78
2018-02-16T18:42:39.542Z,65.03
2018-02-16T18:45:09.996Z,72.75
2018-02-16T18:47:39.296Z,72.97
2018-02-16T18:50:08.812Z,83.00
2018-02-16T18:52:38.223Z,80.78
2018-02-16T18:55:07.736Z,76.70
2018-02-16T18:57:37.126Z,82.72
2018-02-16T19:00:07.648Z,85.85
2018-02-16T19:02:38.549Z,82.93
2018-02-16T19:05:08.139Z,74.40
2018-02-16T19:07:37.562Z,65.70
2018-02-16T19:10:08.383Z,80.43
2018-02-16T19:12:37.602Z,77.20
2018-02-16T19:15:07.099Z,79.80
2018-02-16T19:17:36.615Z,69.07
2018-02-16T19:20:06.043Z,72.25
2018-02-16T19:22:36.346Z,74.12
2018-02-16T19:25:05.740Z,71.82
2018-02-16T19:27:35.988Z,74.78
2018-02-16T19:30:09.536Z,72.00
2018-02-16T19:32:43.216Z,72.70
2018-02-16T19:35:14.830Z,73.53
2018-02-16T19:37:44.225Z,76.00
2018-02-16T19:40:13.226Z,71.05
2018-02-16T19:42:44.228Z,62.00
2018-02-16T19:45:14.248Z,71.62
2018-02-16T19:47:43.680Z,71.18
2018-02-16T19:50:12.793Z,67.75
2018-02-16T19:52:41.811Z,72.37
2018-02-16T19:55:12.804Z,69.18
2018-02-16T19:57:44.267Z,71.22
2018-02-16T20:00:14.321Z,74.60
2018-02-16T20:02:43.749Z,87.65
2018-02-16T20:05:13.007Z,89.37
2018-02-16T20:07:43.015Z,84.22
2018-02-16T20:10:12.499Z,83.95
2018-02-16T20:12:41.861Z,86.93
2018-02-16T20:15:13.918Z,85.30
2018-02-16T20:17:47.178Z,67.45
2018-02-16T20:20:16.516Z,68.60
2018-02-16T20:22:45.720Z,66.65
2018-02-16T20:25:18.491Z,67.97
2018-02-16T20:27:47.659Z,74.18
2018-02-16T20:30:16.852Z,66.30
2018-02-16T20:32:47.663Z,68.57
2018-02-16T20:35:16.899Z,64.68
2018-02-16T20:37:46.158Z,56.55
2018-02-16T20:40:15.381Z,52.58
2018-02-16T20:42:44.384Z,46.35
2018-02-16T20:45:13.588Z,50.50
2018-02-16T20:47:44.424Z,54.28
2018-02-16T20:50:13.562Z,51.08
2018-02-16T20:52:42.865Z,52.60
2018-02-16T20:55:12.070Z,50.38
2018-02-16T20:57:41.534Z,38.58
2018-02-16T21:00:10.406Z,41.60
2018-02-16T21:02:39.323Z,41.55
2018-02-16T21:05:09.068Z,45.88
2018-02-16T21:07:37.957Z,42.33
2018-02-16T21:10:09.531Z,46.72
2018-02-16T21:12:38.603Z,45.33
2018-02-16T21:15:12.813Z,51.78
2018-02-16T21:17:43.419Z,43.45
2018-02-16T21:20:12.538Z,42.38
2018-02-16T21:22:43.030Z,40.30
2018-02-16T21:25:12.153Z,40.85
2018-02-16T21:27:41.006Z,44.67
2018-02-16T21:30:10.161Z,45.00
2018-02-16T21:32:39.032Z,48.58
2018-02-16T21:35:07.979Z,50.00
2018-02-16T21:37:38.540Z,48.95
2018-02-16T21:40:07.639Z,45.97
2018-02-16T21:42:36.503Z,41.83
2018-02-16T21:45:05.914Z,43.10
2018-02-16T21:47:34.882Z,37.92
2018-02-16T21:50:03.814Z,35.17
2018-02-16T21:52:37.315Z,37.28
2018-02-16T21:55:06.197Z,33.95
2018-02-16T21:57:35.144Z,33.80
2018-02-16T22:00:04.125Z,29.90
2018-02-16T22:02:32.978Z,31.45
2018-02-16T22:05:02.682Z,28.98
2018-02-16T22:07:33.623Z,29.65
2018-02-16T22:10:02.717Z,31.12
2018-02-16T22:12:32.569Z,30.33
2018-02-16T22:15:03.181Z,31.15
2018-02-16T22:17:33.430Z,31.55
2018-02-16T22:20:02.501Z,30.90
2018-02-16T22:22:33.053Z,28.85
2018-02-16T22:25:04.768Z,29.75
2018-02-16T22:27:34.925Z,32.50
2018-02-16T22:30:03.898Z,33.10
2018-02-16T22:32:33.100Z,32.67
2018-02-16T22:35:02.924Z,30.40
2018-02-16T22:37:32.756Z,34.35
2018-02-16T22:40:01.736Z,34.03
2018-02-16T22:42:30.897Z,29.98
2018-02-16T22:44:59.995Z,30.52
2018-02-16T22:47:28.987Z,28.00
2018-02-16T22:50:01.572Z,29.15
2018-02-16T22:52:30.707Z,30.75
2018-02-16T22:54:59.656Z,29.83
2018-02-16T22:57:28.893Z,32.08
2018-02-16T22:59:58.463Z,29.60
2018-02-16T23:02:27.572Z,32.17
2018-02-16T23:04:57.880Z,31.75
2018-02-16T23:07:27.009Z,33.13
2018-02-16T23:09:56.612Z,33.33
2018-02-16T23:12:26.502Z,33.55
2018-02-16T23:14:57.034Z,34.40
2018-02-16T23:17:26.063Z,33.30
2018-02-16T23:19:56.692Z,32.63
2018-02-16T23:22:25.916Z,32.33
2018-02-16T23:24:55.041Z,33.00
2018-02-16T23:27:28.254Z,33.85
2018-02-16T23:29:57.239Z,32.15
2018-02-16T23:32:26.263Z,28.90
2018-02-16T23:34:55.301Z,33.30
2018-02-16T23:37:24.523Z,33.63
2018-02-16T23:39:53.620Z,33.58
2018-02-16T23:42:27.284Z,31.42
2018-02-16T23:44:59.855Z,32.15
2018-02-16T23:47:29.921Z,29.45
2018-02-16T23:49:59.715Z,29.80
2018-02-16T23:52:28.851Z,29.25
2018-02-16T23:54:57.942Z,30.55
2018-02-16T23:57:27.020Z,28.73
2018-02-16T23:59:56.107Z,26.95
